createdAt,value
2022-09-09T00:02:07.400Z,18.40
2022-09-09T00:07:06.743Z,18.30
2022-09-09T00:12:05.386Z,18.20
2022-09-09T00:17:04.696Z,18.10
2022-09-09T00:22:03.333Z,18.00
2022-09-09T00:27:02.407Z,17.90
2022-09-09T00:32:03.304Z,17.90
2022-09-09T00:37:02.483Z,17.80
2022-09-09T00:42:01.331Z,17.80
2022-09-09T00:47:00.908Z,17.70
2022-09-09T00:51:59.364Z,17.90
2022-09-09T00:56:58.424Z,18.00
2022-09-09T01:01:59.122Z,18.10
2022-09-09T01:06:58.394Z,18.10
2022-09-09T01:11:58.371Z,18.20
2022-09-09T01:16:58.534Z,18.20
2022-09-09T01:21:58.180Z,18.30
2022-09-09T01:26:59.731Z,18.30
2022-09-09T01:31:59.016Z,18.20
2022-09-09T01:36:58.729Z,18.20
2022-09-09T01:41:57.699Z,18.20
2022-09-09T01:46:56.709Z,18.10
2022-09-09T01:51:57.255Z,18.10
2022-09-09T01:56:56.688Z,17.90
2022-09-09T02:01:55.871Z,17.80
2022-09-09T02:06:56.695Z,17.80
2022-09-09T02:11:57.444Z,17.80
2022-09-09T02:16:58.432Z,17.80
2022-09-09T02:21:58.896Z,17.80
2022-09-09T02:26:58.113Z,17.90
2022-09-09T02:31:59.749Z,17.90
2022-09-09T02:36:58.604Z,18.00
2022-09-09T02:41:59.314Z,18.00
2022-09-09T02:46:58.589Z,18.10
2022-09-09T02:51:57.991Z,18.10
2022-09-09T02:56:58.900Z,18.10
2022-09-09T03:01:58.469Z,18.20
2022-09-09T03:06:58.051Z,18.20
2022-09-09T03:11:57.949Z,18.20
2022-09-09T03:16:58.026Z,18.20
2022-09-09T03:21:58.003Z,18.10
2022-09-09T03:26:56.995Z,18.10
2022-09-09T03:31:56.725Z,18.10
2022-09-09T03:36:56.876Z,18.10
2022-09-09T03:41:55.952Z,18.10
2022-09-09T03:46:54.687Z,18.10
2022-09-09T03:51:53.536Z,18.10
2022-09-09T03:56:52.900Z,18.00
2022-09-09T04:01:51.839Z,18.00
2022-09-09T04:06:51.837Z,18.00
2022-09-09T04:11:50.851Z,17.90
2022-09-09T04:16:50.008Z,18.00
2022-09-09T04:21:51.871Z,18.00
2022-09-09T04:26:53.643Z,18.10
2022-09-09T04:31:53.916Z,18.10
2022-09-09T04:36:53.611Z,18.10
2022-09-09T04:41:52.768Z,18.20
2022-09-09T04:46:51.659Z,18.10
2022-09-09T04:51:51.451Z,18.20
2022-09-09T04:56:51.505Z,18.10
2022-09-09T05:01:51.163Z,18.20
2022-09-09T05:06:51.166Z,18.20
2022-09-09T05:11:53.113Z,18.10
2022-09-09T05:16:52.379Z,18.20
2022-09-09T05:21:53.481Z,18.20
2022-09-09T05:26:52.838Z,18.20
2022-09-09T05:31:53.594Z,18.30
2022-09-09T05:36:54.677Z,18.30
2022-09-09T05:41:54.359Z,18.30
2022-09-09T05:46:54.156Z,18.30
2022-09-09T05:51:54.801Z,18.30
2022-09-09T05:56:54.264Z,18.40
2022-09-09T06:01:55.608Z,18.50
2022-09-09T06:06:56.154Z,18.60
2022-09-09T06:11:56.161Z,18.70
2022-09-09T06:16:57.247Z,18.70
2022-09-09T06:21:57.020Z,18.70
2022-09-09T06:26:57.609Z,18.80
2022-09-09T06:31:58.483Z,18.90
2022-09-09T06:36:58.353Z,18.80
2022-09-09T06:42:02.533Z,18.70
2022-09-09T06:47:01.971Z,18.50
2022-09-09T06:52:01.744Z,18.50
2022-09-09T06:57:07.826Z,18.60
2022-09-09T07:02:05.598Z,18.70
2022-09-09T07:07:05.577Z,18.90
2022-09-09T07:12:07.480Z,19.10
2022-09-09T07:17:08.655Z,19.40
2022-09-09T07:22:08.077Z,19.80
2022-09-09T07:27:07.146Z,20.00
2022-09-09T07:32:08.586Z,20.10
2022-09-09T07:37:09.305Z,20.10
2022-09-09T07:42:11.153Z,20.30
2022-09-09T07:47:12.589Z,20.60
2022-09-09T07:52:15.928Z,20.70
2022-09-09T07:57:19.503Z,21.20
2022-09-09T08:02:19.014Z,21.50
2022-09-09T08:07:19.726Z,21.70
2022-09-09T08:12:19.460Z,21.70
2022-09-09T08:17:19.039Z,21.80
2022-09-09T08:22:18.856Z,21.70
2022-09-09T08:27:18.046Z,21.60
2022-09-09T08:32:18.684Z,21.40
2022-09-09T08:37:18.862Z,21.30
2022-09-09T08:42:18.334Z,21.20
2022-09-09T08:47:17.921Z,21.50
2022-09-09T08:52:17.433Z,22.00
2022-09-09T08:57:17.149Z,21.90
2022-09-09T09:02:17.715Z,21.80
2022-09-09T09:07:17.537Z,21.50
2022-09-09T09:12:17.260Z,21.30
2022-09-09T09:17:16.352Z,21.50
2022-09-09T09:22:16.384Z,22.10
2022-09-09T09:27:17.613Z,22.30
2022-09-09T09:32:16.914Z,22.30
2022-09-09T09:37:16.833Z,22.10
2022-09-09T09:42:18.904Z,22.20
2022-09-09T09:47:19.731Z,22.10
2022-09-09T09:52:19.152Z,22.00
2022-09-09T09:57:18.435Z,22.00
2022-09-09T10:02:18.423Z,22.20
2022-09-09T10:07:17.995Z,22.70
2022-09-09T10:12:16.816Z,23.00
2022-09-09T10:17:17.568Z,23.20
2022-09-09T10:22:16.854Z,23.30
2022-09-09T10:27:17.312Z,23.60
2022-09-09T10:32:17.104Z,24.00
2022-09-09T10:37:15.708Z,24.30
2022-09-09T10:42:14.660Z,24.40
2022-09-09T10:47:14.095Z,25.00
2022-09-09T10:52:13.208Z,25.20
2022-09-09T10:57:11.757Z,25.10
2022-09-09T11:02:10.651Z,25.00
2022-09-09T11:07:11.871Z,25.00
2022-09-09T11:12:10.932Z,24.60
2022-09-09T11:17:09.830Z,24.40
2022-09-09T11:22:08.927Z,24.20
2022-09-09T11:27:07.687Z,24.10
2022-09-09T11:32:06.685Z,23.60
2022-09-09T11:37:05.942Z,23.10
2022-09-09T11:42:04.880Z,22.90
2022-09-09T11:47:04.012Z,22.80
2022-09-09T11:52:02.915Z,22.30
2022-09-09T11:57:01.923Z,22.90
2022-09-09T12:02:01.510Z,23.40
2022-09-09T12:07:00.799Z,23.50
2022-09-09T12:12:00.905Z,23.20
2022-09-09T12:16:59.832Z,22.70
2022-09-09T12:21:58.868Z,22.60
2022-09-09T12:26:58.331Z,22.30
2022-09-09T12:31:57.556Z,22.10
2022-09-09T12:36:56.784Z,22.50
2022-09-09T12:41:57.695Z,23.20
2022-09-09T12:46:57.052Z,23.30
2022-09-09T12:51:57.871Z,23.90
2022-09-09T12:56:56.815Z,24.50
2022-09-09T13:01:55.916Z,24.60
2022-09-09T13:06:55.948Z,24.10
2022-09-09T13:11:56.878Z,23.30
2022-09-09T13:16:56.001Z,22.20
2022-09-09T13:21:55.020Z,22.30
2022-09-09T13:26:55.057Z,23.20
2022-09-09T13:31:54.338Z,23.90
2022-09-09T13:36:57.963Z,23.80
2022-09-09T13:41:55.402Z,23.60
2022-09-09T13:46:54.826Z,23.50
2022-09-09T13:51:54.532Z,23.90
2022-09-09T13:56:54.701Z,24.60
2022-09-09T14:01:53.808Z,24.60
2022-09-09T14:06:52.827Z,24.50
2022-09-09T14:11:51.840Z,24.80
2022-09-09T14:16:50.941Z,25.20
2022-09-09T14:21:51.059Z,25.20
2022-09-09T14:26:49.978Z,24.80
2022-09-09T14:31:48.871Z,25.00
2022-09-09T14:36:47.991Z,25.40
2022-09-09T14:41:46.813Z,25.20
2022-09-09T14:46:45.979Z,24.50
2022-09-09T14:51:44.763Z,23.60
2022-09-09T14:56:43.992Z,23.00
2022-09-09T15:01:42.833Z,22.30
2022-09-09T15:06:43.667Z,21.80
2022-09-09T15:11:44.196Z,21.70
2022-09-09T15:16:42.861Z,21.50
2022-09-09T15:21:41.971Z,20.70
2022-09-09T15:26:41.124Z,20.10
2022-09-09T15:31:40.110Z,20.40
2022-09-09T15:36:39.123Z,20.90
2022-09-09T15:41:37.974Z,21.50
2022-09-09T15:46:37.890Z,21.70
2022-09-09T15:51:42.338Z,21.60
2022-09-09T15:56:38.874Z,21.30
2022-09-09T16:01:38.382Z,20.80
2022-09-09T16:06:37.356Z,20.60
2022-09-09T16:11:36.212Z,20.40
2022-09-09T16:16:35.785Z,20.40
2022-09-09T16:21:35.676Z,20.60
2022-09-09T16:26:34.893Z,21.00
2022-09-09T16:31:34.503Z,21.30
2022-09-09T16:36:35.023Z,21.40
2022-09-09T16:41:34.300Z,21.30
2022-09-09T16:46:33.125Z,21.10
2022-09-09T16:51:32.083Z,20.90
2022-09-09T16:56:30.901Z,20.70
2022-09-09T17:01:30.041Z,20.50
2022-09-09T17:06:29.381Z,20.20
2022-09-09T17:11:28.172Z,20.00
2022-09-09T17:16:27.941Z,19.90
2022-09-09T17:21:27.225Z,19.80
2022-09-09T17:26:27.133Z,19.70
2022-09-09T17:31:26.541Z,19.60
2022-09-09T17:36:26.061Z,19.60
2022-09-09T17:41:25.095Z,19.50
2022-09-09T17:46:24.268Z,19.40
2022-09-09T17:51:25.459Z,19.30
2022-09-09T17:56:24.664Z,19.10
2022-09-09T18:01:24.217Z,19.00
2022-09-09T18:06:23.934Z,18.90
2022-09-09T18:11:23.238Z,18.70
2022-09-09T18:16:22.661Z,18.60
2022-09-09T18:21:22.962Z,18.50
2022-09-09T18:26:22.099Z,18.60
2022-09-09T18:31:22.977Z,18.60
2022-09-09T18:36:22.158Z,18.60
2022-09-09T18:41:21.566Z,18.60
2022-09-09T18:46:19.990Z,18.60
2022-09-09T18:51:19.257Z,18.60
2022-09-09T18:56:18.282Z,18.50
2022-09-09T19:01:17.316Z,18.50
2022-09-09T19:06:16.258Z,18.40
2022-09-09T19:11:15.757Z,18.40
2022-09-09T19:16:15.417Z,18.40
2022-09-09T19:21:14.080Z,18.30
2022-09-09T19:26:14.955Z,18.20
2022-09-09T19:31:15.186Z,18.10
2022-09-09T19:36:15.122Z,18.00
2022-09-09T19:41:14.250Z,18.00
2022-09-09T19:46:13.473Z,18.00
2022-09-09T19:51:12.768Z,18.10
2022-09-09T19:56:12.923Z,18.20
2022-09-09T20:01:12.181Z,18.20
2022-09-09T20:06:11.826Z,18.20
2022-09-09T20:11:11.180Z,18.20
2022-09-09T20:16:11.064Z,18.30
2022-09-09T20:21:10.189Z,18.20
2022-09-09T20:26:09.201Z,18.10
2022-09-09T20:31:08.285Z,18.20
2022-09-09T20:36:07.229Z,18.10
2022-09-09T20:41:06.260Z,18.10
2022-09-09T20:46:05.274Z,18.20
2022-09-09T20:51:04.836Z,18.20
2022-09-09T20:56:04.130Z,18.20
2022-09-09T21:01:04.525Z,18.30
2022-09-09T21:06:03.145Z,18.30
2022-09-09T21:11:02.643Z,18.30
2022-09-09T21:16:01.500Z,18.30
2022-09-09T21:21:00.224Z,18.30
2022-09-09T21:25:59.220Z,18.30
2022-09-09T21:30:58.242Z,18.30
2022-09-09T21:36:01.891Z,18.30
2022-09-09T21:40:58.264Z,18.20
2022-09-09T21:45:57.392Z,18.10
2022-09-09T21:50:56.316Z,18.00
2022-09-09T21:55:55.283Z,17.90
2022-09-09T22:00:57.386Z,17.90
2022-09-09T22:05:56.272Z,17.90
2022-09-09T22:10:55.234Z,17.80
2022-09-09T22:15:56.139Z,17.90
2022-09-09T22:20:55.318Z,17.90
2022-09-09T22:25:56.199Z,18.00
2022-09-09T22:30:55.248Z,18.00
2022-09-09T22:35:54.487Z,18.10
2022-09-09T22:40:53.367Z,18.10
2022-09-09T22:45:52.467Z,18.10
2022-09-09T22:50:51.177Z,18.10
2022-09-09T22:55:50.379Z,18.00
2022-09-09T23:00:49.207Z,18.00
2022-09-09T23:05:48.208Z,17.90
2022-09-09T23:10:47.226Z,18.00
2022-09-09T23:15:46.443Z,17.90
2022-09-09T23:20:45.711Z,17.90
2022-09-09T23:25:44.262Z,18.00
2022-09-09T23:30:43.283Z,17.90
2022-09-09T23:35:43.387Z,18.00
2022-09-09T23:40:44.210Z,17.80
2022-09-09T23:45:43.380Z,17.70
2022-09-09T23:50:42.297Z,17.70
2022-09-09T23:55:41.421Z,17.70
